createdAt,value
2023-04-02T00:01:39.035Z,81.56
2023-04-02T00:03:42.598Z,81.71
2023-04-02T00:05:51.147Z,81.77
2023-04-02T00:07:49.099Z,81.54
2023-04-02T00:09:42.482Z,81.61
2023-04-02T00:11:37.626Z,81.70
2023-04-02T00:13:31.411Z,81.68
2023-04-02T00:15:24.365Z,81.59
2023-04-02T00:17:17.525Z,81.70
2023-04-02T00:19:19.890Z,81.64
2023-04-02T00:21:21.452Z,81.64
2023-04-02T00:23:15.608Z,81.91
2023-04-02T00:25:14.102Z,81.59
2023-04-02T00:27:11.982Z,81.66
2023-04-02T00:29:06.437Z,81.41
2023-04-02T00:31:00.418Z,81.41
2023-04-02T00:32:55.078Z,81.18
2023-04-02T00:34:49.410Z,81.41
2023-04-02T00:36:44.194Z,81.50
2023-04-02T00:38:38.551Z,81.44
2023-04-02T00:40:32.137Z,81.34
2023-04-02T00:42:25.682Z,81.48
2023-04-02T00:44:22.038Z,81.33
2023-04-02T00:46:18.049Z,81.49
2023-04-02T00:48:27.359Z,81.53
2023-04-02T00:50:26.353Z,81.39
2023-04-02T00:52:25.033Z,81.42
2023-04-02T00:54:22.046Z,81.36
2023-04-02T00:56:22.103Z,81.32
2023-04-02T00:58:35.730Z,81.40
2023-04-02T01:00:32.284Z,81.47
2023-04-02T01:02:28.683Z,81.23
2023-04-02T01:04:31.701Z,81.37
2023-04-02T01:06:30.743Z,81.36
2023-04-02T01:08:28.626Z,81.23
2023-04-02T01:10:46.046Z,81.31
2023-04-02T01:13:00.803Z,81.10
2023-04-02T01:15:09.932Z,81.27
2023-04-02T01:17:08.805Z,81.16
2023-04-02T01:19:32.387Z,81.12
2023-04-02T01:21:46.328Z,81.05
2023-04-02T01:23:59.034Z,81.38
2023-04-02T01:26:21.986Z,81.27
2023-04-02T01:28:23.126Z,81.26
2023-04-02T01:30:16.994Z,81.30
2023-04-02T01:32:14.149Z,81.33
2023-04-02T01:34:11.289Z,81.46
2023-04-02T01:36:30.962Z,81.24
2023-04-02T01:38:32.112Z,81.28
2023-04-02T01:40:50.961Z,81.22
2023-04-02T01:42:54.661Z,81.07
2023-04-02T01:44:52.728Z,81.09
2023-04-02T01:46:49.266Z,80.81
2023-04-02T01:48:42.627Z,81.06
2023-04-02T01:50:38.900Z,81.16
2023-04-02T01:52:40.645Z,80.83
2023-04-02T01:54:37.931Z,81.00
2023-04-02T01:56:31.622Z,81.04
2023-04-02T01:58:31.714Z,80.99
2023-04-02T02:00:27.942Z,81.20
2023-04-02T02:02:22.125Z,81.15
2023-04-02T02:04:16.921Z,80.99
2023-04-02T02:06:15.117Z,81.14
2023-04-02T02:08:25.344Z,80.92
2023-04-02T02:10:28.814Z,80.97
2023-04-02T02:12:22.611Z,80.84
2023-04-02T02:14:22.209Z,80.73
2023-04-02T02:16:18.393Z,80.82
2023-04-02T02:18:12.623Z,80.71
2023-04-02T02:20:12.506Z,80.84
2023-04-02T02:22:19.098Z,80.66
2023-04-02T02:24:27.232Z,80.90
2023-04-02T02:26:22.887Z,80.89
2023-04-02T02:28:27.335Z,81.03
2023-04-02T02:30:22.231Z,81.00
2023-04-02T02:32:17.977Z,80.76
2023-04-02T02:34:18.872Z,80.76
2023-04-02T02:36:22.799Z,80.68
2023-04-02T02:38:34.270Z,80.62
2023-04-02T02:40:38.995Z,80.81
2023-04-02T02:42:37.150Z,80.73
2023-04-02T02:44:35.025Z,80.21
2023-04-02T02:46:30.722Z,80.02
2023-04-02T02:48:28.593Z,80.16
2023-04-02T02:50:26.090Z,80.41
2023-04-02T02:52:21.973Z,80.45
2023-04-02T02:54:20.037Z,80.32
2023-04-02T02:56:14.207Z,80.38
2023-04-02T02:58:19.541Z,80.42
2023-04-02T03:00:24.889Z,80.62
2023-04-02T03:02:19.511Z,80.43
2023-04-02T03:04:14.424Z,80.02
2023-04-02T03:06:10.244Z,79.47
2023-04-02T03:08:09.607Z,79.29
2023-04-02T03:10:20.759Z,79.29
2023-04-02T03:12:32.626Z,79.47
2023-04-02T03:15:24.169Z,79.77
2023-04-02T03:17:39.470Z,78.88
2023-04-02T03:19:43.284Z,78.87
2023-04-02T03:21:56.055Z,79.10
2023-04-02T03:23:57.296Z,78.90
2023-04-02T03:26:02.022Z,79.17
2023-04-02T03:28:01.864Z,78.95
2023-04-02T03:30:27.825Z,78.70
2023-04-02T03:32:26.940Z,77.73
2023-04-02T03:34:26.030Z,77.79
2023-04-02T03:36:28.938Z,77.47
2023-04-02T03:38:37.027Z,78.04
2023-04-02T03:40:38.682Z,78.46
2023-04-02T03:42:46.280Z,78.39
2023-04-02T03:44:56.481Z,78.11
2023-04-02T03:46:58.382Z,78.14
2023-04-02T03:48:57.965Z,78.12
2023-04-02T03:51:06.192Z,78.20
2023-04-02T03:53:01.593Z,78.13
2023-04-02T03:54:57.375Z,78.20
2023-04-02T03:56:52.684Z,78.20
2023-04-02T03:59:01.752Z,78.40
2023-04-02T04:01:17.729Z,78.16
2023-04-02T04:03:26.760Z,78.03
2023-04-02T04:05:26.359Z,78.15
2023-04-02T04:07:33.044Z,77.96
2023-04-02T04:09:32.245Z,77.89
2023-04-02T04:11:30.738Z,78.13
2023-04-02T04:13:43.515Z,77.50
2023-04-02T04:15:45.787Z,77.57
2023-04-02T04:18:35.094Z,77.40
2023-04-02T04:20:46.149Z,77.76
2023-04-02T04:22:41.121Z,77.64
2023-04-02T04:24:45.652Z,77.58
2023-04-02T04:26:56.524Z,77.14
2023-04-02T04:29:27.149Z,77.57
2023-04-02T04:31:39.254Z,77.53
2023-04-02T04:33:43.700Z,77.55
2023-04-02T04:35:46.779Z,77.68
2023-04-02T04:37:45.092Z,76.65
2023-04-02T04:39:46.409Z,76.29
2023-04-02T04:41:42.314Z,76.48
2023-04-02T04:43:45.666Z,75.99
2023-04-02T04:45:47.760Z,75.78
2023-04-02T04:48:18.052Z,74.89
2023-04-02T04:50:21.548Z,74.76
2023-04-02T04:52:33.044Z,74.97
2023-04-02T04:54:28.231Z,74.38
2023-04-02T04:56:26.725Z,75.11
2023-04-02T04:58:27.830Z,74.67
2023-04-02T05:00:48.223Z,74.96
2023-04-02T05:03:07.199Z,74.93
2023-04-02T05:05:02.384Z,75.10
2023-04-02T05:07:03.174Z,75.06
2023-04-02T05:09:01.348Z,74.84
2023-04-02T05:11:03.569Z,74.64
2023-04-02T05:13:09.521Z,74.39
2023-04-02T05:15:18.063Z,73.94
2023-04-02T05:17:19.172Z,74.28
2023-04-02T05:19:26.147Z,74.29
2023-04-02T05:21:27.939Z,74.11
2023-04-02T05:23:29.764Z,74.28
2023-04-02T05:25:26.332Z,74.32
2023-04-02T05:27:33.782Z,74.29
2023-04-02T05:29:36.975Z,74.37
2023-04-02T05:31:56.140Z,74.79
2023-04-02T05:33:50.420Z,74.68
2023-04-02T05:35:48.531Z,74.52
2023-04-02T05:37:42.285Z,74.53
2023-04-02T05:39:35.383Z,74.82
2023-04-02T05:41:40.540Z,74.37
2023-04-02T05:43:36.847Z,74.04
2023-04-02T05:45:36.496Z,74.23
2023-04-02T05:47:32.652Z,74.23
2023-04-02T05:50:10.392Z,74.19
2023-04-02T05:52:20.548Z,74.32
2023-04-02T05:54:23.399Z,74.67
2023-04-02T05:56:24.059Z,74.52
2023-04-02T06:01:12.108Z,73.23
2023-04-02T06:03:20.365Z,73.83
2023-04-02T06:05:20.414Z,73.93
2023-04-02T06:07:18.499Z,73.62
2023-04-02T06:09:27.776Z,73.61
2023-04-02T06:11:47.915Z,73.67
2023-04-02T06:13:43.831Z,74.01
2023-04-02T06:15:38.418Z,73.86
2023-04-02T06:18:06.844Z,73.82
2023-04-02T06:20:06.202Z,73.96
2023-04-02T06:22:08.923Z,73.94
2023-04-02T06:24:05.504Z,73.94
2023-04-02T06:26:05.475Z,73.85
2023-04-02T06:28:02.077Z,74.01
2023-04-02T06:30:01.094Z,73.64
2023-04-02T06:32:00.443Z,73.73
2023-04-02T06:33:55.212Z,73.58
2023-04-02T06:35:51.968Z,73.57
2023-04-02T06:37:56.274Z,73.23
2023-04-02T06:39:53.036Z,73.85
2023-04-02T06:41:46.891Z,73.76
2023-04-02T06:44:05.137Z,73.86
2023-04-02T06:46:26.860Z,73.52
2023-04-02T06:48:26.155Z,73.30
2023-04-02T06:50:29.036Z,73.53
2023-04-02T06:52:34.660Z,73.67
2023-04-02T06:54:28.396Z,73.37
2023-04-02T06:56:41.073Z,73.32
2023-04-02T06:58:34.110Z,73.16
2023-04-02T07:00:38.380Z,73.21
2023-04-02T07:02:39.573Z,73.15
2023-04-02T07:04:34.800Z,73.08
2023-04-02T07:06:28.739Z,72.67
2023-04-02T07:08:25.067Z,72.41
2023-04-02T07:10:20.370Z,72.54
2023-04-02T07:12:14.750Z,72.94
2023-04-02T07:14:13.323Z,72.73
2023-04-02T07:16:08.988Z,72.59
2023-04-02T07:18:02.239Z,73.12
2023-04-02T07:19:55.546Z,72.09
2023-04-02T07:21:49.618Z,72.11
2023-04-02T07:23:43.316Z,72.36
2023-04-02T07:25:36.678Z,72.15
2023-04-02T07:27:30.820Z,72.16
2023-04-02T07:29:23.665Z,72.24
2023-04-02T07:31:24.839Z,72.27
2023-04-02T07:33:21.604Z,72.34
2023-04-02T07:35:15.113Z,72.55
2023-04-02T07:37:08.563Z,72.25
2023-04-02T07:39:02.231Z,72.30
2023-04-02T07:40:55.105Z,72.06
2023-04-02T07:42:48.538Z,72.19
2023-04-02T07:44:41.528Z,72.24
2023-04-02T07:46:34.575Z,72.07
2023-04-02T07:48:27.997Z,72.26
2023-04-02T07:50:21.305Z,72.59
2023-04-02T07:52:14.205Z,72.54
2023-04-02T07:54:10.397Z,72.51
2023-04-02T07:56:04.809Z,72.34
2023-04-02T07:57:59.994Z,72.02
2023-04-02T07:59:56.523Z,72.33
2023-04-02T08:01:49.842Z,72.09
2023-04-02T08:03:43.154Z,72.29
2023-04-02T08:05:36.641Z,71.91
2023-04-02T08:07:29.870Z,72.23
2023-04-02T08:09:23.131Z,72.21
2023-04-02T08:11:17.096Z,72.05
2023-04-02T08:13:09.946Z,72.32
2023-04-02T08:15:03.923Z,72.57
2023-04-02T08:16:57.105Z,72.72
2023-04-02T08:18:50.219Z,72.46
2023-04-02T08:20:43.226Z,72.20
2023-04-02T08:22:36.532Z,72.18
2023-04-02T08:24:29.482Z,71.96
2023-04-02T08:26:22.530Z,72.06
2023-04-02T08:28:15.623Z,72.49
2023-04-02T08:30:11.712Z,72.16
2023-04-02T08:32:04.649Z,72.11
2023-04-02T08:33:57.698Z,72.30
2023-04-02T08:35:51.324Z,71.68
2023-04-02T08:37:44.312Z,71.31
2023-04-02T08:39:37.466Z,71.78
2023-04-02T08:41:37.321Z,72.04
2023-04-02T08:43:39.060Z,71.86
2023-04-02T08:45:50.742Z,71.86
2023-04-02T08:47:44.534Z,71.19
2023-04-02T08:49:51.369Z,70.58
2023-04-02T08:51:46.364Z,70.13
2023-04-02T08:53:41.947Z,70.37
2023-04-02T08:55:43.061Z,70.23
2023-04-02T08:57:49.923Z,70.00
2023-04-02T08:59:44.871Z,69.83
2023-04-02T09:01:49.532Z,70.03
2023-04-02T09:03:47.368Z,69.79
2023-04-02T09:05:43.221Z,69.83
2023-04-02T09:07:36.322Z,69.62
2023-04-02T09:09:34.924Z,69.57
2023-04-02T09:11:42.411Z,69.44
2023-04-02T09:13:42.919Z,69.20
2023-04-02T09:15:36.968Z,68.74
2023-04-02T09:17:36.939Z,68.90
2023-04-02T09:19:46.155Z,68.75
2023-04-02T09:22:03.864Z,69.02
2023-04-02T09:23:58.042Z,68.77
2023-04-02T09:26:03.531Z,68.76
2023-04-02T09:28:01.812Z,68.86
2023-04-02T09:30:06.793Z,68.99
2023-04-02T09:32:08.858Z,69.08
2023-04-02T09:34:02.938Z,68.70
2023-04-02T09:35:58.112Z,69.18
2023-04-02T09:38:15.768Z,69.07
2023-04-02T09:40:28.055Z,69.27
2023-04-02T09:42:38.247Z,69.08
2023-04-02T09:44:31.359Z,69.25
2023-04-02T09:46:26.023Z,68.72
2023-04-02T09:48:27.909Z,68.94
2023-04-02T09:50:20.966Z,69.02
2023-04-02T09:52:20.449Z,69.03
2023-04-02T09:54:17.262Z,69.21
2023-04-02T09:56:17.949Z,69.13
2023-04-02T09:58:16.826Z,68.99
2023-04-02T10:00:31.611Z,68.52
2023-04-02T10:02:30.005Z,68.15
2023-04-02T10:04:49.764Z,68.41
2023-04-02T10:06:49.899Z,69.03
2023-04-02T10:08:44.827Z,69.23
2023-04-02T10:10:41.057Z,69.11
2023-04-02T10:12:41.793Z,69.07
2023-04-02T10:14:39.953Z,68.80
2023-04-02T10:16:53.826Z,69.20
2023-04-02T10:19:00.025Z,68.96
2023-04-02T10:20:56.399Z,69.37
2023-04-02T10:22:50.359Z,69.04
2023-04-02T10:24:43.614Z,69.08
2023-04-02T10:26:45.885Z,68.25
2023-04-02T10:28:52.656Z,67.78
2023-04-02T10:30:58.432Z,67.80
2023-04-02T10:32:54.461Z,67.11
2023-04-02T10:35:02.000Z,67.74
2023-04-02T10:37:37.259Z,67.58
2023-04-02T10:39:41.593Z,68.07
2023-04-02T10:41:57.558Z,67.57
2023-04-02T10:44:17.088Z,67.22
2023-04-02T10:46:24.992Z,66.75
2023-04-02T10:48:37.344Z,66.47
2023-04-02T10:50:54.450Z,66.42
2023-04-02T10:52:57.965Z,66.35
2023-04-02T10:54:53.903Z,66.90
2023-04-02T10:56:50.941Z,67.17
2023-04-02T10:59:22.784Z,65.99
2023-04-02T11:01:22.518Z,66.11
2023-04-02T11:03:30.549Z,66.21
2023-04-02T11:05:33.258Z,65.82
2023-04-02T11:07:29.114Z,65.47
2023-04-02T11:09:28.604Z,65.70
2023-04-02T11:11:26.539Z,65.74
2023-04-02T11:13:28.551Z,65.16
2023-04-02T11:15:22.502Z,65.43
2023-04-02T11:17:17.533Z,65.18
2023-04-02T11:19:16.843Z,64.70
2023-04-02T11:21:57.244Z,64.27
2023-04-02T11:24:04.301Z,64.19
2023-04-02T11:26:37.589Z,64.51
2023-04-02T11:28:32.900Z,64.12
2023-04-02T11:30:27.795Z,63.90
2023-04-02T11:32:21.270Z,64.07
2023-04-02T11:34:42.173Z,63.51
2023-04-02T11:36:50.081Z,62.84
2023-04-02T11:38:46.583Z,62.86
2023-04-02T11:40:54.882Z,63.30
2023-04-02T11:42:49.829Z,63.26
2023-04-02T11:44:42.942Z,62.87
2023-04-02T11:46:39.928Z,62.21
2023-04-02T11:48:36.676Z,61.98
2023-04-02T11:50:36.675Z,61.84
2023-04-02T11:52:49.481Z,61.76
2023-04-02T11:54:42.702Z,61.84
2023-04-02T11:56:48.292Z,61.51
2023-04-02T11:58:55.230Z,62.08
2023-04-02T12:01:26.467Z,62.40
2023-04-02T12:03:34.057Z,63.29
2023-04-02T12:05:37.748Z,63.65
2023-04-02T12:08:07.878Z,62.83
2023-04-02T12:10:05.764Z,63.10
2023-04-02T12:12:15.002Z,62.85
2023-04-02T12:14:42.019Z,62.63
2023-04-02T12:16:35.645Z,62.15
2023-04-02T12:18:28.733Z,62.46
2023-04-02T12:20:27.520Z,62.48
2023-04-02T12:22:32.079Z,61.78
2023-04-02T12:24:31.450Z,61.20
2023-04-02T12:26:42.417Z,61.61
2023-04-02T12:28:38.546Z,61.27
2023-04-02T12:30:31.581Z,61.84
2023-04-02T12:32:30.349Z,61.87
2023-04-02T12:34:26.950Z,61.55
2023-04-02T12:36:22.498Z,61.57
2023-04-02T12:38:21.986Z,61.82
2023-04-02T12:40:18.445Z,62.18
2023-04-02T12:42:27.232Z,61.90
2023-04-02T12:44:23.687Z,61.34
2023-04-02T12:46:16.943Z,61.53
2023-04-02T12:48:13.684Z,61.75
2023-04-02T12:50:07.647Z,61.66
2023-04-02T12:52:04.184Z,61.70
2023-04-02T12:53:57.445Z,62.09
2023-04-02T12:55:52.272Z,61.60
2023-04-02T12:57:49.277Z,61.90
2023-04-02T12:59:43.758Z,62.50
2023-04-02T13:01:36.648Z,63.02
2023-04-02T13:03:29.671Z,63.15
2023-04-02T13:05:42.648Z,63.10
2023-04-02T13:07:35.939Z,63.10
2023-04-02T13:09:35.953Z,62.83
2023-04-02T13:11:40.537Z,62.47
2023-04-02T13:13:41.821Z,62.78
2023-04-02T13:15:36.818Z,62.71
2023-04-02T13:17:43.951Z,62.29
2023-04-02T13:19:36.969Z,61.75
2023-04-02T13:21:30.912Z,62.04
2023-04-02T13:23:29.831Z,62.02
2023-04-02T13:25:29.365Z,61.79
2023-04-02T13:27:22.498Z,62.11
2023-04-02T13:29:24.006Z,62.74
2023-04-02T13:31:17.181Z,62.70
2023-04-02T13:33:10.045Z,62.68
2023-04-02T13:35:02.814Z,62.13
2023-04-02T13:36:57.543Z,62.08
2023-04-02T13:38:50.812Z,62.42
2023-04-02T13:40:43.858Z,61.70
2023-04-02T13:42:36.788Z,61.64
2023-04-02T13:44:31.940Z,60.68
2023-04-02T13:46:28.118Z,60.44
2023-04-02T13:48:24.751Z,60.63
2023-04-02T13:50:20.565Z,60.61
2023-04-02T13:52:15.992Z,60.70
2023-04-02T13:54:17.732Z,61.07
2023-04-02T13:56:10.575Z,60.63
2023-04-02T13:58:04.646Z,60.70
2023-04-02T13:59:57.501Z,60.90
2023-04-02T14:01:53.325Z,61.15
2023-04-02T14:03:46.763Z,61.11
2023-04-02T14:05:52.103Z,61.18
2023-04-02T14:07:58.466Z,60.35
2023-04-02T14:10:11.793Z,59.68
2023-04-02T14:12:55.635Z,59.50
2023-04-02T14:15:07.223Z,60.29
2023-04-02T14:17:06.279Z,59.99
2023-04-02T14:19:05.199Z,58.55
2023-04-02T14:21:29.379Z,57.75
2023-04-02T14:23:38.207Z,58.29
2023-04-02T14:25:45.187Z,58.94
2023-04-02T14:27:49.996Z,58.68
2023-04-02T14:29:51.268Z,57.98
2023-04-02T14:32:04.826Z,58.01
2023-04-02T14:34:15.043Z,58.24
2023-04-02T14:36:46.185Z,58.33
2023-04-02T14:38:48.647Z,59.07
2023-04-02T14:41:00.025Z,58.56
2023-04-02T14:43:17.365Z,58.19
2023-04-02T14:45:20.742Z,58.31
2023-04-02T14:47:16.839Z,58.14
2023-04-02T14:49:35.919Z,58.36
2023-04-02T14:52:04.400Z,58.63
2023-04-02T14:54:15.578Z,58.08
2023-04-02T14:56:11.703Z,57.47
2023-04-02T14:58:15.808Z,57.44
2023-04-02T15:00:24.317Z,57.20
2023-04-02T15:02:25.418Z,57.49
2023-04-02T15:04:23.322Z,57.38
2023-04-02T15:06:24.261Z,57.57
2023-04-02T15:08:24.424Z,57.35
2023-04-02T15:10:32.525Z,57.60
2023-04-02T15:12:33.414Z,57.64
2023-04-02T15:14:38.655Z,57.70
2023-04-02T15:16:33.346Z,57.00
2023-04-02T15:18:27.140Z,57.22
2023-04-02T15:20:20.481Z,57.06
2023-04-02T15:22:35.857Z,56.01
2023-04-02T15:24:43.445Z,56.85
2023-04-02T15:27:09.306Z,56.21
2023-04-02T15:29:33.440Z,55.41
2023-04-02T15:31:28.298Z,54.49
2023-04-02T15:33:42.068Z,54.83
2023-04-02T15:35:52.436Z,54.67
2023-04-02T15:38:00.624Z,53.97
2023-04-02T15:40:08.196Z,53.74
2023-04-02T15:42:27.601Z,53.86
2023-04-02T15:44:20.739Z,54.22
2023-04-02T15:46:26.200Z,54.24
2023-04-02T15:48:30.052Z,54.10
2023-04-02T15:50:50.955Z,53.00
2023-04-02T15:53:07.198Z,52.68
2023-04-02T15:55:26.038Z,52.28
2023-04-02T15:57:41.824Z,52.27
2023-04-02T15:59:48.795Z,52.44
2023-04-02T16:02:05.621Z,52.73
2023-04-02T16:04:22.205Z,52.29
2023-04-02T16:06:26.873Z,52.88
2023-04-02T16:08:31.042Z,53.11
2023-04-02T16:10:42.489Z,53.52
2023-04-02T16:12:39.110Z,52.45
2023-04-02T16:14:34.058Z,52.80
2023-04-02T16:16:33.058Z,52.34
2023-04-02T16:18:55.178Z,50.94
2023-04-02T16:20:51.080Z,51.77
2023-04-02T16:22:59.293Z,52.06
2023-04-02T16:25:00.462Z,50.85
2023-04-02T16:26:57.688Z,50.53
2023-04-02T16:29:12.354Z,50.23
2023-04-02T16:31:24.585Z,50.43
2023-04-02T16:33:41.658Z,50.74
2023-04-02T16:35:43.588Z,50.88
2023-04-02T16:37:50.394Z,51.12
2023-04-02T16:39:52.858Z,51.37
2023-04-02T16:41:59.532Z,52.00
2023-04-02T16:44:24.946Z,52.23
2023-04-02T16:46:39.011Z,51.46
2023-04-02T16:48:35.819Z,51.16
2023-04-02T16:50:44.441Z,51.22
2023-04-02T16:52:48.035Z,51.75
2023-04-02T16:55:12.883Z,51.11
2023-04-02T16:57:21.185Z,50.97
2023-04-02T16:59:36.480Z,51.31
2023-04-02T17:01:41.930Z,51.44
2023-04-02T17:03:57.210Z,50.97
2023-04-02T17:06:01.999Z,50.99
2023-04-02T17:08:30.528Z,50.54
2023-04-02T17:10:38.470Z,49.70
2023-04-02T17:12:51.959Z,48.87
2023-04-02T17:15:03.261Z,49.43
2023-04-02T17:17:01.546Z,49.46
2023-04-02T17:18:58.427Z,49.66
2023-04-02T17:20:51.616Z,49.72
2023-04-02T17:22:44.885Z,50.02
2023-04-02T17:24:58.906Z,49.94
2023-04-02T17:27:03.834Z,50.20
2023-04-02T17:29:01.595Z,50.46
2023-04-02T17:30:57.806Z,50.23
2023-04-02T17:32:50.911Z,50.72
2023-04-02T17:34:44.223Z,51.04
2023-04-02T17:36:59.970Z,51.36
2023-04-02T17:39:08.428Z,51.57
2023-04-02T17:41:23.497Z,51.78
2023-04-02T17:43:35.348Z,52.20
2023-04-02T17:45:32.992Z,52.56
2023-04-02T17:47:56.764Z,52.95
2023-04-02T17:50:06.663Z,53.46
2023-04-02T17:52:18.443Z,53.58
2023-04-02T17:54:23.578Z,54.07
2023-04-02T17:56:57.621Z,54.59
2023-04-02T17:59:13.274Z,55.02
2023-04-02T18:01:33.986Z,55.55
2023-04-02T18:03:53.285Z,55.63
2023-04-02T18:06:08.814Z,55.94
2023-04-02T18:08:13.647Z,56.35
2023-04-02T18:10:18.482Z,56.62
2023-04-02T18:12:32.236Z,56.43
2023-04-02T18:14:43.170Z,56.23
2023-04-02T18:17:11.388Z,55.93
2023-04-02T18:19:17.418Z,56.06
2023-04-02T18:22:00.529Z,55.98
2023-04-02T18:24:14.909Z,56.21
2023-04-02T18:26:32.807Z,56.15
2023-04-02T18:28:56.067Z,56.00
2023-04-02T18:31:20.354Z,56.19
2023-04-02T18:33:39.212Z,56.27
2023-04-02T18:36:03.067Z,56.22
2023-04-02T18:38:30.638Z,55.82
2023-04-02T18:40:58.504Z,55.59
2023-04-02T18:43:08.756Z,55.72
2023-04-02T18:45:14.709Z,55.72
2023-04-02T18:47:38.479Z,55.37
2023-04-02T18:49:46.891Z,54.96
2023-04-02T18:51:40.145Z,55.04
2023-04-02T18:53:33.628Z,54.87
2023-04-02T18:55:30.604Z,54.81
2023-04-02T18:57:31.394Z,54.85
2023-04-02T18:59:41.882Z,54.95
2023-04-02T19:03:51.806Z,55.17
2023-04-02T19:05:51.443Z,55.28
2023-04-02T19:07:48.090Z,55.55
2023-04-02T19:09:47.681Z,55.44
2023-04-02T19:11:41.108Z,55.65
2023-04-02T19:13:34.460Z,55.41
2023-04-02T19:15:40.746Z,55.32
2023-04-02T19:17:43.442Z,55.48
2023-04-02T19:19:46.116Z,55.34
2023-04-02T19:21:51.827Z,55.34
2023-04-02T19:24:13.248Z,55.18
2023-04-02T19:26:11.870Z,55.68
2023-04-02T19:28:29.857Z,55.50
2023-04-02T19:30:50.147Z,55.77
2023-04-02T19:33:02.847Z,55.55
2023-04-02T19:35:21.215Z,55.49
2023-04-02T19:37:38.256Z,56.11
2023-04-02T19:39:59.619Z,55.87
2023-04-02T19:42:25.981Z,55.99
2023-04-02T19:44:20.976Z,55.63
2023-04-02T19:46:14.118Z,55.22
2023-04-02T19:48:24.665Z,55.33
2023-04-02T19:50:18.035Z,55.68
2023-04-02T19:52:11.391Z,55.28
2023-04-02T19:54:04.638Z,55.39
2023-04-02T19:55:57.709Z,55.60
2023-04-02T19:57:52.674Z,55.63
2023-04-02T19:59:47.473Z,55.61
2023-04-02T20:01:40.636Z,55.46
2023-04-02T20:03:33.503Z,55.32
2023-04-02T20:05:26.381Z,55.78
2023-04-02T20:07:19.372Z,55.73
2023-04-02T20:09:13.860Z,55.80
2023-04-02T20:11:07.213Z,56.18
2023-04-02T20:13:01.138Z,56.32
2023-04-02T20:14:54.645Z,56.54
2023-04-02T20:16:50.112Z,56.42
2023-04-02T20:18:43.851Z,56.71
2023-04-02T20:20:39.457Z,56.97
2023-04-02T20:22:32.386Z,57.06
2023-04-02T20:24:25.172Z,57.19
2023-04-02T20:26:18.080Z,57.32
2023-04-02T20:28:10.917Z,57.32
2023-04-02T20:30:04.892Z,57.51
2023-04-02T20:31:57.842Z,57.88
2023-04-02T20:33:55.684Z,57.91
2023-04-02T20:35:50.940Z,57.94
2023-04-02T20:37:44.057Z,58.11
2023-04-02T20:39:37.565Z,58.33
2023-04-02T20:41:30.470Z,58.24
2023-04-02T20:43:23.628Z,58.59
2023-04-02T20:45:16.671Z,58.46
2023-04-02T20:47:10.849Z,58.60
2023-04-02T20:49:04.102Z,58.88
2023-04-02T20:50:57.357Z,59.04
2023-04-02T20:52:51.126Z,59.11
2023-04-02T20:54:44.175Z,59.15
2023-04-02T20:56:37.024Z,59.35
2023-04-02T20:58:29.871Z,59.42
2023-04-02T21:00:23.123Z,59.48
2023-04-02T21:02:16.384Z,59.61
2023-04-02T21:04:09.341Z,59.64
2023-04-02T21:06:02.344Z,59.86
2023-04-02T21:07:55.544Z,60.02
2023-04-02T21:09:48.684Z,60.15
2023-04-02T21:11:41.646Z,60.30
2023-04-02T21:13:38.650Z,60.47
2023-04-02T21:15:33.315Z,60.63
2023-04-02T21:17:26.435Z,61.03
2023-04-02T21:19:19.469Z,61.23
2023-04-02T21:21:14.161Z,61.36
2023-04-02T21:23:06.998Z,61.54
2023-04-02T21:24:59.944Z,61.76
2023-04-02T21:26:52.769Z,61.88
2023-04-02T21:28:46.044Z,61.95
2023-04-02T21:30:38.840Z,62.08
2023-04-02T21:32:33.107Z,62.22
2023-04-02T21:34:26.016Z,62.35
2023-04-02T21:36:37.671Z,62.48
2023-04-02T21:38:31.369Z,62.66
2023-04-02T21:40:24.210Z,62.83
2023-04-02T21:42:17.159Z,62.97
2023-04-02T21:44:13.842Z,63.19
2023-04-02T21:46:07.048Z,63.17
2023-04-02T21:48:00.185Z,63.36
2023-04-02T21:49:53.149Z,63.39
2023-04-02T21:51:47.235Z,63.61
2023-04-02T21:53:41.208Z,63.94
2023-04-02T21:55:34.044Z,64.08
2023-04-02T21:57:26.950Z,64.37
2023-04-02T21:59:19.945Z,64.57
2023-04-02T22:01:26.144Z,64.70
2023-04-02T22:03:31.175Z,64.89
2023-04-02T22:05:24.693Z,65.07
2023-04-02T22:07:17.740Z,65.03
2023-04-02T22:09:14.072Z,65.17
2023-04-02T22:11:17.157Z,65.31
2023-04-02T22:13:10.003Z,65.44
2023-04-02T22:15:02.850Z,65.43
2023-04-02T22:16:56.359Z,65.71
2023-04-02T22:18:51.371Z,65.85
2023-04-02T22:20:44.251Z,65.90
2023-04-02T22:22:37.016Z,66.01
2023-04-02T22:24:30.260Z,66.18
2023-04-02T22:26:23.607Z,66.21
2023-04-02T22:28:16.556Z,66.35
2023-04-02T22:30:09.809Z,66.52
2023-04-02T22:32:02.677Z,66.63
2023-04-02T22:33:56.832Z,66.66
2023-04-02T22:35:51.812Z,66.86
2023-04-02T22:37:44.775Z,66.95
2023-04-02T22:39:37.739Z,67.04
2023-04-02T22:41:32.138Z,67.18
2023-04-02T22:43:24.901Z,67.31
2023-04-02T22:45:20.979Z,67.41
2023-04-02T22:47:13.817Z,67.47
2023-04-02T22:49:06.684Z,67.52
2023-04-02T22:50:59.722Z,67.52
2023-04-02T22:52:52.969Z,67.60
2023-04-02T22:54:46.325Z,67.75
2023-04-02T22:56:39.172Z,67.71
2023-04-02T22:58:32.435Z,67.92
2023-04-02T23:00:25.250Z,67.87
2023-04-02T23:02:18.531Z,68.17
2023-04-02T23:04:11.377Z,68.08
2023-04-02T23:06:07.494Z,68.35
2023-04-02T23:08:00.555Z,68.47
2023-04-02T23:09:53.495Z,68.40
2023-04-02T23:11:46.343Z,68.50
2023-04-02T23:13:40.434Z,68.59
2023-04-02T23:15:33.262Z,68.53
2023-04-02T23:17:26.544Z,68.73
2023-04-02T23:19:19.569Z,68.76
2023-04-02T23:21:12.516Z,68.72
2023-04-02T23:23:05.568Z,68.80
2023-04-02T23:24:58.529Z,68.92
2023-04-02T23:26:51.476Z,68.91
2023-04-02T23:28:45.614Z,69.04
2023-04-02T23:30:38.710Z,69.10
2023-04-02T23:32:31.751Z,69.16
2023-04-02T23:34:24.898Z,69.23
2023-04-02T23:36:24.857Z,69.23
2023-04-02T23:38:17.669Z,69.36
2023-04-02T23:40:11.110Z,69.38
2023-04-02T23:42:04.163Z,69.47
2023-04-02T23:43:58.245Z,69.45
2023-04-02T23:45:51.402Z,69.64
2023-04-02T23:47:44.461Z,69.66
2023-04-02T23:49:37.294Z,69.56
2023-04-02T23:51:32.392Z,69.75
2023-04-02T23:53:25.438Z,69.94
2023-04-02T23:55:18.285Z,69.93
2023-04-02T23:57:11.478Z,69.99
2023-04-02T23:59:04.797Z,69.97
